createdAt,value
2022-09-01T00:00:49.633Z,19.08
2022-09-01T00:03:18.514Z,18.95
2022-09-01T00:05:49.847Z,18.87
2022-09-01T00:08:18.528Z,18.88
2022-09-01T00:10:47.124Z,18.84
2022-09-01T00:13:15.623Z,18.81
2022-09-01T00:15:44.219Z,18.76
2022-09-01T00:18:13.742Z,18.77
2022-09-01T00:20:41.845Z,18.79
2022-09-01T00:23:09.899Z,18.74
2022-09-01T00:25:38.005Z,18.70
2022-09-01T00:28:06.138Z,18.63
2022-09-01T00:30:34.268Z,18.61
2022-09-01T00:33:02.513Z,18.61
2022-09-01T00:35:31.955Z,18.76
2022-09-01T00:38:05.606Z,18.94
2022-09-01T00:40:34.115Z,18.97
2022-09-01T00:43:02.485Z,18.91
2022-09-01T00:45:30.728Z,18.86
2022-09-01T00:47:58.768Z,18.80
2022-09-01T00:50:27.349Z,18.92
2022-09-01T00:52:57.115Z,18.99
2022-09-01T00:55:30.147Z,19.01
2022-09-01T00:58:02.618Z,18.92
2022-09-01T01:00:33.910Z,18.91
2022-09-01T01:03:02.025Z,18.93
2022-09-01T01:05:37.214Z,18.92
2022-09-01T01:08:08.146Z,18.96
2022-09-01T01:10:39.834Z,18.94
2022-09-01T01:13:12.905Z,18.94
2022-09-01T01:15:43.730Z,18.93
2022-09-01T01:18:12.299Z,18.92
2022-09-01T01:20:58.287Z,18.94
2022-09-01T01:23:37.232Z,18.87
2022-09-01T01:26:10.543Z,18.84
2022-09-01T01:28:44.189Z,18.80
2022-09-01T01:31:15.359Z,18.81
2022-09-01T01:33:46.463Z,18.76
2022-09-01T01:36:19.949Z,18.72
2022-09-01T01:38:50.526Z,18.67
2022-09-01T01:41:21.992Z,18.59
2022-09-01T01:43:50.959Z,18.58
2022-09-01T01:46:20.773Z,18.56
2022-09-01T01:48:52.318Z,18.55
2022-09-01T01:51:24.967Z,18.52
2022-09-01T01:53:53.599Z,18.57
2022-09-01T01:56:25.679Z,18.59
2022-09-01T01:58:56.087Z,18.59
2022-09-01T02:01:28.658Z,18.57
2022-09-01T02:04:00.431Z,18.60
2022-09-01T02:06:29.907Z,18.62
2022-09-01T02:09:03.344Z,18.58
2022-09-01T02:11:33.678Z,18.57
2022-09-01T02:14:02.886Z,18.53
2022-09-01T02:16:33.156Z,18.52
2022-09-01T02:19:07.156Z,18.47
2022-09-01T02:21:35.811Z,18.44
2022-09-01T02:24:08.335Z,18.42
2022-09-01T02:26:40.648Z,18.33
2022-09-01T02:29:17.857Z,18.37
2022-09-01T02:31:48.961Z,18.35
2022-09-01T02:34:18.228Z,18.31
2022-09-01T02:36:55.653Z,18.31
2022-09-01T02:39:29.606Z,18.33
2022-09-01T02:42:01.236Z,18.41
2022-09-01T02:44:31.053Z,18.36
2022-09-01T02:47:01.776Z,18.33
2022-09-01T02:49:31.363Z,18.29
2022-09-01T02:52:01.370Z,18.38
2022-09-01T02:54:33.054Z,18.33
2022-09-01T02:57:03.955Z,18.32
2022-09-01T02:59:32.291Z,18.32
2022-09-01T03:02:01.696Z,18.32
2022-09-01T03:04:35.384Z,18.32
2022-09-01T03:07:05.200Z,18.32
2022-09-01T03:09:35.411Z,18.33
2022-09-01T03:12:07.344Z,18.30
2022-09-01T03:14:36.235Z,18.33
2022-09-01T03:17:04.367Z,18.36
2022-09-01T03:19:40.112Z,18.40
2022-09-01T03:22:08.458Z,18.40
2022-09-01T03:24:36.701Z,18.41
2022-09-01T03:27:06.302Z,18.41
2022-09-01T03:29:36.769Z,18.38
2022-09-01T03:32:05.793Z,18.37
2022-09-01T03:34:36.802Z,18.29
2022-09-01T03:37:07.943Z,18.33
2022-09-01T03:39:36.648Z,18.26
2022-09-01T03:42:11.158Z,18.27
2022-09-01T03:44:41.930Z,18.22
2022-09-01T03:47:15.172Z,18.22
2022-09-01T03:49:43.585Z,18.27
2022-09-01T03:52:12.177Z,18.28
2022-09-01T03:54:40.519Z,18.32
2022-09-01T03:57:10.872Z,18.20
2022-09-01T03:59:45.197Z,18.15
2022-09-01T04:02:14.597Z,18.11
2022-09-01T04:04:43.156Z,18.06
2022-09-01T04:07:18.925Z,17.95
2022-09-01T04:09:47.588Z,17.83
2022-09-01T04:12:17.232Z,17.85
2022-09-01T04:14:49.911Z,17.82
2022-09-01T04:17:35.380Z,17.76
2022-09-01T04:20:09.291Z,17.69
2022-09-01T04:22:38.179Z,17.66
2022-09-01T04:25:08.872Z,17.62
2022-09-01T04:27:40.386Z,17.63
2022-09-01T04:30:12.505Z,17.63
2022-09-01T04:32:46.902Z,17.62
2022-09-01T04:35:16.957Z,17.58
2022-09-01T04:37:47.525Z,17.47
2022-09-01T04:40:15.840Z,17.43
2022-09-01T04:42:45.642Z,17.46
2022-09-01T04:45:16.346Z,17.45
2022-09-01T04:47:48.218Z,17.56
2022-09-01T04:50:19.238Z,17.53
2022-09-01T04:53:07.445Z,17.62
2022-09-01T04:55:49.972Z,17.66
2022-09-01T04:58:22.708Z,17.61
2022-09-01T05:00:53.021Z,17.62
2022-09-01T05:03:24.432Z,17.69
2022-09-01T05:06:03.901Z,17.77
2022-09-01T05:08:35.221Z,17.72
2022-09-01T05:11:07.893Z,17.69
2022-09-01T05:13:48.003Z,17.65
2022-09-01T05:16:24.901Z,17.69
2022-09-01T05:18:57.911Z,17.60
2022-09-01T05:21:30.003Z,17.68
2022-09-01T05:24:01.734Z,17.71
2022-09-01T05:26:34.071Z,17.69
2022-09-01T05:29:10.497Z,17.71
2022-09-01T05:31:38.983Z,17.77
2022-09-01T05:34:09.673Z,17.86
2022-09-01T05:36:43.166Z,17.83
2022-09-01T05:39:13.021Z,17.83
2022-09-01T05:41:42.114Z,17.90
2022-09-01T05:44:11.629Z,17.86
2022-09-01T05:46:41.707Z,17.85
2022-09-01T05:49:13.452Z,17.82
2022-09-01T05:51:45.913Z,17.85
2022-09-01T05:54:16.343Z,17.87
2022-09-01T05:56:46.044Z,17.94
2022-09-01T05:59:24.884Z,17.88
2022-09-01T06:01:57.323Z,17.99
2022-09-01T06:04:27.819Z,18.00
2022-09-01T06:07:07.825Z,18.06
2022-09-01T06:09:40.131Z,18.05
2022-09-01T06:12:17.854Z,18.12
2022-09-01T06:14:49.401Z,18.16
2022-09-01T06:17:19.480Z,18.24
2022-09-01T06:19:48.022Z,18.29
2022-09-01T06:22:17.018Z,18.30
2022-09-01T06:24:47.237Z,18.44
2022-09-01T06:27:20.288Z,18.41
2022-09-01T06:29:51.635Z,18.44
2022-09-01T06:32:20.594Z,18.54
2022-09-01T06:34:51.375Z,18.68
2022-09-01T06:37:23.062Z,18.61
2022-09-01T06:39:55.327Z,18.68
2022-09-01T06:42:24.641Z,18.77
2022-09-01T06:44:59.738Z,18.88
2022-09-01T06:47:28.600Z,18.86
2022-09-01T06:49:58.854Z,18.90
2022-09-01T06:52:28.280Z,18.99
2022-09-01T06:54:57.777Z,19.01
2022-09-01T07:00:20.182Z,19.06
2022-09-01T07:02:57.041Z,19.15
2022-09-01T07:15:33.974Z,19.26
2022-09-01T07:17:25.288Z,19.33
2022-09-01T07:19:56.046Z,19.32
2022-09-01T07:25:16.799Z,19.40
2022-09-01T07:28:04.238Z,19.38
2022-09-01T07:30:33.704Z,19.46
2022-09-01T07:39:47.269Z,19.65
2022-09-01T07:42:31.116Z,19.15
2022-09-01T07:44:55.118Z,19.63
2022-09-01T07:47:55.346Z,19.59
2022-09-01T07:50:40.174Z,19.56
2022-09-01T07:53:17.661Z,19.65
2022-09-01T07:55:50.727Z,19.71
2022-09-01T07:58:22.034Z,19.71
2022-09-01T08:00:55.154Z,19.76
2022-09-01T08:03:26.432Z,19.81
2022-09-01T08:06:00.887Z,19.80
2022-09-01T08:08:29.564Z,19.86
2022-09-01T08:11:05.634Z,19.88
2022-09-01T08:13:38.929Z,19.87
2022-09-01T08:16:18.591Z,19.95
2022-09-01T08:18:49.695Z,19.92
2022-09-01T08:21:45.521Z,20.00
2022-09-01T08:24:36.046Z,19.98
2022-09-01T08:27:04.464Z,20.06
2022-09-01T08:29:32.693Z,20.03
2022-09-01T08:32:02.664Z,20.12
2022-09-01T08:34:32.877Z,20.17
2022-09-01T08:37:03.013Z,20.21
2022-09-01T08:39:32.858Z,20.22
2022-09-01T08:42:12.222Z,20.22
2022-09-01T08:44:51.713Z,20.25
2022-09-01T08:47:35.509Z,20.28
2022-09-01T08:50:10.347Z,20.34
2022-09-01T08:53:10.544Z,20.37
2022-09-01T08:55:46.195Z,20.45
2022-09-01T08:58:19.085Z,20.50
2022-09-01T09:01:19.929Z,20.53
2022-09-01T09:03:57.345Z,20.47
2022-09-01T09:06:35.211Z,20.45
2022-09-01T09:09:07.588Z,20.49
2022-09-01T09:12:10.799Z,20.51
2022-09-01T09:14:55.460Z,20.52
2022-09-01T09:17:29.974Z,20.60
2022-09-01T09:19:58.029Z,20.57
2022-09-01T09:22:26.077Z,20.51
2022-09-01T09:25:03.623Z,20.64
2022-09-01T09:27:35.519Z,20.71
2022-09-01T09:30:11.185Z,20.80
2022-09-01T09:35:40.666Z,20.86
2022-09-01T09:38:28.780Z,20.90
2022-09-01T09:41:17.146Z,20.89
2022-09-01T09:43:50.230Z,20.90
2022-09-01T09:46:25.897Z,20.96
2022-09-01T09:49:19.353Z,20.96
2022-09-01T09:51:58.778Z,20.98
2022-09-01T09:54:29.285Z,20.99
2022-09-01T09:57:14.874Z,21.16
2022-09-01T09:59:58.139Z,21.28
2022-09-01T10:02:33.388Z,21.38
2022-09-01T10:05:22.341Z,21.37
2022-09-01T10:07:51.307Z,21.35
2022-09-01T10:10:37.734Z,21.40
2022-09-01T10:13:13.772Z,21.40
2022-09-01T10:15:44.889Z,21.41
2022-09-01T10:18:28.375Z,21.47
2022-09-01T10:21:01.872Z,21.42
2022-09-01T10:23:34.642Z,21.53
2022-09-01T10:26:10.916Z,21.60
2022-09-01T10:28:50.707Z,21.63
2022-09-01T10:31:21.022Z,21.66
2022-09-01T10:33:50.960Z,21.67
2022-09-01T10:36:24.506Z,21.71
2022-09-01T10:38:54.352Z,21.73
2022-09-01T10:42:00.772Z,21.74
2022-09-01T10:44:35.836Z,21.76
2022-09-01T10:47:14.514Z,21.77
2022-09-01T10:50:02.294Z,21.77
2022-09-01T10:53:02.934Z,21.90
2022-09-01T10:55:39.752Z,22.13
2022-09-01T11:02:28.059Z,22.30
2022-09-01T11:05:20.208Z,22.29
2022-09-01T11:08:15.180Z,22.34
2022-09-01T11:10:50.172Z,22.48
2022-09-01T11:13:45.198Z,22.26
2022-09-01T11:16:50.375Z,22.27
2022-09-01T11:19:41.075Z,22.46
2022-09-01T11:22:32.637Z,22.49
2022-09-01T11:25:43.609Z,22.36
2022-09-01T11:28:41.998Z,22.32
2022-09-01T11:31:41.750Z,22.38
2022-09-01T11:34:20.886Z,22.65
2022-09-01T11:37:00.245Z,22.96
2022-09-01T11:39:35.882Z,23.12
2022-09-01T11:42:13.203Z,23.05
2022-09-01T11:44:50.753Z,22.99
2022-09-01T11:47:23.385Z,22.93
2022-09-01T11:49:56.097Z,23.03
2022-09-01T11:52:30.077Z,23.07
2022-09-01T11:54:59.174Z,22.98
2022-09-01T11:57:31.932Z,23.02
2022-09-01T12:00:02.701Z,22.91
2022-09-01T12:02:45.874Z,22.96
2022-09-01T12:05:29.553Z,22.97
2022-09-01T12:08:00.513Z,23.01
2022-09-01T12:10:34.863Z,22.94
2022-09-01T12:13:09.408Z,22.81
2022-09-01T12:16:00.508Z,22.80
2022-09-01T12:18:33.906Z,22.84
2022-09-01T12:21:05.160Z,22.96
2022-09-01T12:23:37.293Z,23.00
2022-09-01T12:26:09.399Z,23.10
2022-09-01T12:28:41.720Z,23.10
2022-09-01T12:31:16.426Z,23.10
2022-09-01T12:33:45.258Z,23.14
2022-09-01T12:36:23.786Z,23.14
2022-09-01T12:38:55.286Z,23.18
2022-09-01T12:41:34.856Z,23.28
2022-09-01T12:44:30.347Z,23.25
2022-09-01T12:47:01.866Z,23.22
2022-09-01T12:49:45.151Z,23.26
2022-09-01T12:52:26.675Z,23.32
2022-09-01T12:55:47.295Z,23.28
2022-09-01T12:58:06.424Z,23.22
2022-09-01T13:00:37.638Z,23.03
2022-09-01T13:03:15.095Z,22.97
2022-09-01T13:05:46.999Z,22.87
2022-09-01T13:08:19.764Z,22.96
2022-09-01T13:10:53.258Z,22.93
2022-09-01T13:13:24.170Z,22.94
2022-09-01T13:15:55.698Z,23.08
2022-09-01T13:18:26.149Z,23.01
2022-09-01T13:20:55.012Z,23.06
2022-09-01T13:23:23.502Z,22.98
2022-09-01T13:25:53.832Z,23.02
2022-09-01T13:36:43.787Z,23.13
2022-09-01T13:39:15.419Z,23.20
2022-09-01T13:41:45.023Z,23.20
2022-09-01T13:44:13.110Z,23.20
2022-09-01T13:50:06.436Z,23.16
2022-09-01T13:52:19.159Z,23.21
2022-09-01T13:54:47.806Z,23.25
2022-09-01T13:57:17.835Z,23.28
2022-09-01T13:59:45.872Z,23.23
2022-09-01T14:02:14.003Z,23.23
2022-09-01T14:04:42.220Z,23.36
2022-09-01T14:07:10.329Z,23.37
2022-09-01T14:09:38.379Z,23.39
2022-09-01T14:12:07.095Z,23.43
2022-09-01T14:17:24.727Z,23.44
2022-09-01T14:19:52.860Z,23.50
2022-09-01T14:22:21.149Z,23.57
2022-09-01T14:24:49.319Z,23.63
2022-09-01T14:27:17.597Z,23.70
2022-09-01T14:29:54.910Z,23.82
2022-09-01T14:32:26.792Z,23.85
2022-09-01T14:34:55.569Z,23.92
2022-09-01T14:37:24.398Z,23.90
2022-09-01T14:39:52.850Z,23.90
2022-09-01T14:42:21.449Z,24.04
2022-09-01T14:44:50.947Z,24.12
2022-09-01T14:47:20.832Z,24.20
2022-09-01T14:49:49.135Z,24.11
2022-09-01T14:52:18.066Z,24.06
2022-09-01T14:54:46.549Z,23.89
2022-09-01T14:57:36.937Z,23.89
2022-09-01T15:00:07.371Z,23.84
2022-09-01T15:02:36.152Z,23.75
2022-09-01T15:05:05.248Z,23.82
2022-09-01T15:07:33.397Z,23.85
2022-09-01T15:10:01.550Z,23.90
2022-09-01T15:12:30.894Z,23.85
2022-09-01T15:14:59.866Z,23.82
2022-09-01T15:17:29.898Z,23.80
2022-09-01T15:20:19.173Z,23.70
2022-09-01T15:22:47.985Z,23.69
2022-09-01T15:25:16.467Z,23.74
2022-09-01T15:27:45.817Z,23.69
2022-09-01T15:30:16.979Z,23.71
2022-09-01T15:32:49.257Z,23.72
2022-09-01T15:35:20.028Z,23.75
2022-09-01T15:37:49.649Z,23.77
2022-09-01T15:40:19.283Z,23.83
2022-09-01T15:42:47.524Z,23.76
2022-09-01T15:45:18.291Z,23.76
2022-09-01T15:47:49.202Z,23.80
2022-09-01T15:50:21.896Z,23.80
2022-09-01T15:52:54.463Z,23.82
2022-09-01T15:55:27.382Z,23.82
2022-09-01T15:57:55.966Z,23.74
2022-09-01T16:00:27.480Z,23.76
2022-09-01T16:03:01.630Z,23.81
2022-09-01T16:05:30.714Z,23.82
2022-09-01T16:07:58.981Z,23.76
2022-09-01T16:10:27.519Z,23.73
2022-09-01T16:12:56.328Z,23.75
2022-09-01T16:15:26.206Z,23.72
2022-09-01T16:18:26.983Z,23.71
2022-09-01T16:21:04.710Z,23.69
2022-09-01T16:23:42.027Z,23.71
2022-09-01T16:26:11.770Z,23.66
2022-09-01T16:28:42.515Z,23.66
2022-09-01T16:31:14.680Z,23.68
2022-09-01T16:33:50.501Z,23.69
2022-09-01T16:36:35.714Z,23.73
2022-09-01T16:39:16.512Z,23.72
2022-09-01T16:45:11.455Z,23.56
2022-09-01T16:47:56.434Z,23.58
2022-09-01T16:50:37.509Z,23.58
2022-09-01T16:53:18.745Z,23.64
2022-09-01T16:56:00.367Z,23.58
2022-09-01T16:58:48.558Z,23.55
2022-09-01T17:01:34.665Z,23.55
2022-09-01T17:04:19.805Z,23.51
2022-09-01T17:07:02.782Z,23.47
2022-09-01T17:09:36.197Z,23.44
2022-09-01T17:12:23.371Z,23.43
2022-09-01T17:14:57.908Z,23.44
2022-09-01T17:17:34.737Z,23.42
2022-09-01T17:20:06.318Z,23.41
2022-09-01T17:22:39.639Z,23.37
2022-09-01T17:25:13.798Z,23.30
2022-09-01T17:27:54.377Z,23.31
2022-09-01T17:30:23.261Z,23.26
2022-09-01T17:33:18.315Z,23.26
2022-09-01T17:36:04.045Z,23.23
2022-09-01T17:38:54.104Z,23.20
2022-09-01T17:41:35.234Z,23.15
2022-09-01T17:44:19.091Z,23.12
2022-09-01T17:46:55.162Z,23.06
2022-09-01T17:49:36.749Z,23.00
2022-09-01T17:52:16.033Z,22.97
2022-09-01T17:54:58.016Z,22.95
2022-09-01T17:57:38.652Z,22.94
2022-09-01T18:00:17.854Z,22.90
2022-09-01T18:03:14.797Z,22.81
2022-09-01T18:05:45.796Z,22.77
2022-09-01T18:08:30.218Z,22.80
2022-09-01T18:11:05.908Z,22.72
2022-09-01T18:13:56.464Z,22.73
2022-09-01T18:16:28.939Z,22.68
2022-09-01T18:19:03.131Z,22.61
2022-09-01T18:21:37.249Z,22.57
2022-09-01T18:24:15.918Z,22.52
2022-09-01T18:26:49.709Z,22.45
2022-09-01T18:29:18.916Z,22.39
2022-09-01T18:32:08.958Z,22.36
2022-09-01T18:35:08.157Z,22.29
2022-09-01T18:37:51.768Z,22.25
2022-09-01T18:40:28.080Z,22.24
2022-09-01T18:43:07.935Z,22.25
2022-09-01T18:45:46.344Z,22.24
2022-09-01T18:48:33.281Z,22.20
2022-09-01T18:51:08.085Z,22.16
2022-09-01T18:53:47.170Z,22.08
2022-09-01T18:56:32.290Z,22.08
2022-09-01T18:59:18.853Z,22.10
2022-09-01T19:01:55.395Z,22.02
2022-09-01T19:04:31.258Z,21.99
2022-09-01T19:07:13.990Z,21.91
2022-09-01T19:09:52.093Z,21.81
2022-09-01T19:12:33.080Z,21.84
2022-09-01T19:15:12.185Z,21.75
2022-09-01T19:18:14.390Z,21.65
2022-09-01T19:20:51.010Z,21.47
2022-09-01T19:23:36.317Z,21.40
2022-09-01T19:26:11.379Z,21.36
2022-09-01T19:28:45.598Z,21.38
2022-09-01T19:31:24.000Z,21.34
2022-09-01T19:33:58.152Z,21.29
2022-09-01T19:36:34.030Z,21.16
2022-09-01T19:39:02.382Z,20.93
2022-09-01T19:41:37.373Z,20.91
2022-09-01T19:44:13.754Z,20.81
2022-09-01T19:46:49.459Z,20.72
2022-09-01T19:49:31.202Z,20.64
2022-09-01T19:52:08.714Z,20.78
2022-09-01T19:54:47.283Z,20.83
2022-09-01T19:57:22.931Z,20.90
2022-09-01T20:00:02.875Z,20.83
2022-09-01T20:02:38.104Z,20.81
2022-09-01T20:05:14.704Z,20.82
2022-09-01T20:07:51.998Z,20.80
2022-09-01T20:10:39.684Z,20.80
2022-09-01T20:13:44.502Z,20.66
2022-09-01T20:16:25.720Z,20.69
2022-09-01T20:19:04.442Z,20.65
2022-09-01T20:21:39.941Z,20.51
2022-09-01T20:24:17.395Z,20.47
2022-09-01T20:26:57.180Z,20.41
2022-09-01T20:29:36.966Z,20.35
2022-09-01T20:32:05.673Z,20.35
2022-09-01T20:34:43.041Z,20.30
2022-09-01T20:37:19.433Z,20.28
2022-09-01T20:40:00.846Z,20.21
2022-09-01T20:42:42.699Z,20.27
2022-09-01T20:45:15.922Z,20.28
2022-09-01T20:47:50.460Z,20.30
2022-09-01T20:50:24.462Z,20.29
2022-09-01T20:53:18.518Z,20.28
2022-09-01T20:55:53.437Z,20.27
2022-09-01T20:58:35.918Z,20.29
2022-09-01T21:01:18.017Z,20.26
2022-09-01T21:04:03.819Z,20.19
2022-09-01T21:06:51.598Z,20.13
2022-09-01T21:09:31.707Z,20.12
2022-09-01T21:12:08.438Z,20.09
2022-09-01T21:14:54.321Z,20.04
2022-09-01T21:17:35.195Z,19.99
2022-09-01T21:20:12.810Z,19.96
2022-09-01T21:22:42.214Z,19.93
2022-09-01T21:25:11.897Z,19.87
2022-09-01T21:27:51.973Z,19.90
2022-09-01T21:30:21.270Z,19.82
2022-09-01T21:32:49.513Z,19.79
2022-09-01T21:35:21.134Z,19.74
2022-09-01T21:37:51.078Z,19.66
2022-09-01T21:40:22.681Z,19.68
2022-09-01T21:42:56.435Z,19.63
2022-09-01T21:45:25.053Z,19.57
2022-09-01T21:47:54.358Z,19.48
2022-09-01T21:50:25.608Z,19.54
2022-09-01T21:52:55.109Z,19.59
2022-09-01T21:55:25.748Z,19.63
2022-09-01T21:57:54.594Z,19.60
2022-09-01T22:00:26.514Z,19.64
2022-09-01T22:02:54.854Z,19.64
2022-09-01T22:05:26.127Z,19.63
2022-09-01T22:07:58.334Z,19.65
2022-09-01T22:10:29.558Z,19.64
2022-09-01T22:13:03.439Z,19.60
2022-09-01T22:15:32.542Z,19.45
2022-09-01T22:18:00.737Z,19.35
2022-09-01T22:20:31.885Z,19.27
2022-09-01T22:23:02.918Z,19.23
2022-09-01T22:25:33.429Z,19.23
2022-09-01T22:28:03.318Z,19.10
2022-09-01T22:30:31.467Z,19.05
2022-09-01T22:35:55.533Z,19.03
2022-09-01T22:38:25.209Z,19.05
2022-09-01T22:40:56.319Z,18.99
2022-09-01T22:43:26.049Z,19.00
2022-09-01T22:45:55.655Z,18.87
2022-09-01T22:48:27.307Z,18.95
2022-09-01T22:50:55.544Z,18.81
2022-09-01T22:53:25.116Z,18.81
2022-09-01T22:55:53.774Z,18.78
2022-09-01T22:58:22.191Z,18.73
2022-09-01T23:00:55.804Z,18.67
2022-09-01T23:03:24.696Z,18.74
2022-09-01T23:06:05.581Z,18.85
2022-09-01T23:08:35.870Z,18.91
2022-09-01T23:11:04.687Z,18.98
2022-09-01T23:13:34.230Z,19.03
2022-09-01T23:16:05.035Z,18.86
2022-09-01T23:18:36.518Z,18.81
2022-09-01T23:21:07.474Z,18.70
2022-09-01T23:23:37.602Z,18.66
2022-09-01T23:26:10.048Z,18.69
2022-09-01T23:28:41.965Z,18.65
2022-09-01T23:31:11.495Z,18.64
2022-09-01T23:33:39.680Z,18.53
2022-09-01T23:36:12.433Z,18.55
2022-09-01T23:38:42.998Z,18.54
2022-09-01T23:41:15.488Z,18.49
2022-09-01T23:43:44.611Z,18.46
2022-09-01T23:46:19.822Z,18.51
2022-09-01T23:48:48.083Z,18.53
2022-09-01T23:51:17.994Z,18.58
2022-09-01T23:53:49.296Z,18.57
2022-09-01T23:56:21.353Z,18.59
2022-09-01T23:58:50.140Z,18.66
